sensor_id;sensor_type;location;lat;lon;timestamp;P1;durP1;ratioP1;P2;durP2;ratioP2
33367;SDS011;19724;51.114;13.906;2023-04-03T00:01:30;5.25;;;2.15;;
33367;SDS011;19724;51.114;13.906;2023-04-03T00:03:55;5.97;;;2.00;;
33367;SDS011;19724;51.114;13.906;2023-04-03T00:06:22;8.60;;;2.10;;
33367;SDS011;19724;51.114;13.906;2023-04-03T00:08:48;4.00;;;2.10;;
33367;SDS011;19724;51.114;13.906;2023-04-03T00:11:14;8.35;;;2.17;;
33367;SDS011;19724;51.114;13.906;2023-04-03T00:13:40;7.53;;;2.30;;
33367;SDS011;19724;51.114;13.906;2023-04-03T00:16:06;5.30;;;2.22;;
33367;SDS011;19724;51.114;13.906;2023-04-03T00:18:32;4.43;;;2.38;;
33367;SDS011;19724;51.114;13.906;2023-04-03T00:20:58;4.22;;;2.05;;
33367;SDS011;19724;51.114;13.906;2023-04-03T00:23:23;5.75;;;2.38;;
33367;SDS011;19724;51.114;13.906;2023-04-03T00:25:50;11.15;;;3.05;;
33367;SDS011;19724;51.114;13.906;2023-04-03T00:28:16;6.40;;;2.22;;
33367;SDS011;19724;51.114;13.906;2023-04-03T00:30:41;7.30;;;2.60;;
33367;SDS011;19724;51.114;13.906;2023-04-03T00:33:07;5.20;;;2.47;;
33367;SDS011;19724;51.114;13.906;2023-04-03T00:35:33;5.65;;;1.95;;
33367;SDS011;19724;51.114;13.906;2023-04-03T00:38:00;7.22;;;2.90;;
33367;SDS011;19724;51.114;13.906;2023-04-03T00:40:26;8.30;;;2.15;;
33367;SDS011;19724;51.114;13.906;2023-04-03T00:42:55;5.47;;;2.03;;
33367;SDS011;19724;51.114;13.906;2023-04-03T00:45:30;6.00;;;2.50;;
33367;SDS011;19724;51.114;13.906;2023-04-03T00:47:59;6.30;;;2.28;;
33367;SDS011;19724;51.114;13.906;2023-04-03T00:50:26;6.68;;;2.25;;
33367;SDS011;19724;51.114;13.906;2023-04-03T00:52:53;5.88;;;2.33;;
33367;SDS011;19724;51.114;13.906;2023-04-03T00:55:19;4.20;;;2.05;;
33367;SDS011;19724;51.114;13.906;2023-04-03T00:57:45;7.18;;;2.40;;
33367;SDS011;19724;51.114;13.906;2023-04-03T01:00:13;6.65;;;1.92;;
33367;SDS011;19724;51.114;13.906;2023-04-03T01:02:42;8.98;;;2.72;;
33367;SDS011;19724;51.114;13.906;2023-04-03T01:05:07;6.20;;;2.28;;
33367;SDS011;19724;51.114;13.906;2023-04-03T01:07:34;7.05;;;2.50;;
33367;SDS011;19724;51.114;13.906;2023-04-03T01:10:03;7.35;;;2.58;;
33367;SDS011;19724;51.114;13.906;2023-04-03T01:12:35;6.70;;;2.08;;
33367;SDS011;19724;51.114;13.906;2023-04-03T01:15:04;5.25;;;2.35;;
33367;SDS011;19724;51.114;13.906;2023-04-03T01:17:38;5.35;;;2.05;;
33367;SDS011;19724;51.114;13.906;2023-04-03T01:25:49;4.05;;;2.40;;
33367;SDS011;19724;51.114;13.906;2023-04-03T01:28:17;6.65;;;2.53;;
33367;SDS011;19724;51.114;13.906;2023-04-03T01:30:55;8.40;;;2.47;;
33367;SDS011;19724;51.114;13.906;2023-04-03T01:33:27;6.00;;;2.20;;
33367;SDS011;19724;51.114;13.906;2023-04-03T01:35:53;5.35;;;2.30;;
33367;SDS011;19724;51.114;13.906;2023-04-03T01:38:18;5.38;;;2.25;;
33367;SDS011;19724;51.114;13.906;2023-04-03T01:40:44;5.00;;;2.20;;
33367;SDS011;19724;51.114;13.906;2023-04-03T01:43:09;7.10;;;2.10;;
33367;SDS011;19724;51.114;13.906;2023-04-03T01:45:35;6.10;;;2.70;;
33367;SDS011;19724;51.114;13.906;2023-04-03T01:48:00;9.07;;;2.67;;
33367;SDS011;19724;51.114;13.906;2023-04-03T01:50:26;5.30;;;2.00;;
33367;SDS011;19724;51.114;13.906;2023-04-03T01:52:51;8.38;;;2.70;;
33367;SDS011;19724;51.114;13.906;2023-04-03T01:55:17;5.15;;;2.10;;
33367;SDS011;19724;51.114;13.906;2023-04-03T01:57:42;6.15;;;2.08;;
33367;SDS011;19724;51.114;13.906;2023-04-03T02:00:08;9.80;;;2.50;;
33367;SDS011;19724;51.114;13.906;2023-04-03T02:02:34;7.50;;;2.60;;
33367;SDS011;19724;51.114;13.906;2023-04-03T02:05:00;5.50;;;1.90;;
33367;SDS011;19724;51.114;13.906;2023-04-03T02:07:25;5.10;;;2.22;;
33367;SDS011;19724;51.114;13.906;2023-04-03T02:09:51;10.52;;;2.88;;
33367;SDS011;19724;51.114;13.906;2023-04-03T02:12:16;4.68;;;2.17;;
33367;SDS011;19724;51.114;13.906;2023-04-03T02:14:42;9.10;;;2.88;;
33367;SDS011;19724;51.114;13.906;2023-04-03T02:17:07;7.63;;;2.17;;
33367;SDS011;19724;51.114;13.906;2023-04-03T02:19:34;8.32;;;2.55;;
33367;SDS011;19724;51.114;13.906;2023-04-03T02:22:01;5.18;;;2.33;;
33367;SDS011;19724;51.114;13.906;2023-04-03T02:24:27;7.43;;;2.47;;
33367;SDS011;19724;51.114;13.906;2023-04-03T02:26:53;6.05;;;2.53;;
33367;SDS011;19724;51.114;13.906;2023-04-03T02:29:18;7.22;;;2.60;;
33367;SDS011;19724;51.114;13.906;2023-04-03T02:31:44;9.80;;;2.72;;
33367;SDS011;19724;51.114;13.906;2023-04-03T02:34:10;8.40;;;2.45;;
33367;SDS011;19724;51.114;13.906;2023-04-03T02:36:35;5.75;;;2.30;;
33367;SDS011;19724;51.114;13.906;2023-04-03T02:39:01;9.45;;;2.85;;
33367;SDS011;19724;51.114;13.906;2023-04-03T02:41:27;6.82;;;2.47;;
33367;SDS011;19724;51.114;13.906;2023-04-03T02:43:58;5.93;;;2.30;;
33367;SDS011;19724;51.114;13.906;2023-04-03T02:46:24;4.85;;;2.75;;
33367;SDS011;19724;51.114;13.906;2023-04-03T02:48:49;6.35;;;2.10;;
33367;SDS011;19724;51.114;13.906;2023-04-03T02:51:15;7.65;;;2.40;;
33367;SDS011;19724;51.114;13.906;2023-04-03T02:53:40;5.20;;;2.20;;
33367;SDS011;19724;51.114;13.906;2023-04-03T02:56:06;8.27;;;2.92;;
33367;SDS011;19724;51.114;13.906;2023-04-03T02:58:31;5.60;;;2.13;;
33367;SDS011;19724;51.114;13.906;2023-04-03T03:00:57;8.45;;;2.25;;
33367;SDS011;19724;51.114;13.906;2023-04-03T03:03:22;8.75;;;2.30;;
33367;SDS011;19724;51.114;13.906;2023-04-03T03:05:48;5.30;;;2.17;;
33367;SDS011;19724;51.114;13.906;2023-04-03T03:08:13;8.13;;;3.17;;
33367;SDS011;19724;51.114;13.906;2023-04-03T03:10:39;8.35;;;2.33;;
33367;SDS011;19724;51.114;13.906;2023-04-03T03:13:04;7.90;;;2.20;;
33367;SDS011;19724;51.114;13.906;2023-04-03T03:15:30;8.02;;;2.50;;
33367;SDS011;19724;51.114;13.906;2023-04-03T03:17:56;8.25;;;2.30;;
33367;SDS011;19724;51.114;13.906;2023-04-03T03:20:21;4.30;;;2.35;;
33367;SDS011;19724;51.114;13.906;2023-04-03T03:22:46;7.20;;;2.15;;
33367;SDS011;19724;51.114;13.906;2023-04-03T03:25:12;5.95;;;2.58;;
33367;SDS011;19724;51.114;13.906;2023-04-03T03:27:37;8.43;;;2.80;;
33367;SDS011;19724;51.114;13.906;2023-04-03T03:30:03;4.93;;;2.05;;
33367;SDS011;19724;51.114;13.906;2023-04-03T03:32:30;10.88;;;2.40;;
33367;SDS011;19724;51.114;13.906;2023-04-03T03:34:55;4.63;;;2.00;;
33367;SDS011;19724;51.114;13.906;2023-04-03T03:37:20;7.53;;;3.10;;
33367;SDS011;19724;51.114;13.906;2023-04-03T03:39:46;7.60;;;2.65;;
33367;SDS011;19724;51.114;13.906;2023-04-03T03:42:11;5.75;;;2.58;;
33367;SDS011;19724;51.114;13.906;2023-04-03T03:44:37;5.22;;;2.47;;
33367;SDS011;19724;51.114;13.906;2023-04-03T03:47:02;9.43;;;2.85;;
33367;SDS011;19724;51.114;13.906;2023-04-03T03:49:28;7.13;;;2.72;;
33367;SDS011;19724;51.114;13.906;2023-04-03T03:51:53;8.57;;;2.00;;
33367;SDS011;19724;51.114;13.906;2023-04-03T03:54:19;6.90;;;1.90;;
33367;SDS011;19724;51.114;13.906;2023-04-03T03:56:45;8.38;;;2.63;;
33367;SDS011;19724;51.114;13.906;2023-04-03T03:59:13;5.63;;;2.60;;
33367;SDS011;19724;51.114;13.906;2023-04-03T04:01:39;9.65;;;2.67;;
33367;SDS011;19724;51.114;13.906;2023-04-03T04:04:04;5.03;;;2.40;;
33367;SDS011;19724;51.114;13.906;2023-04-03T04:06:30;8.27;;;2.47;;
33367;SDS011;19724;51.114;13.906;2023-04-03T04:08:55;10.68;;;3.65;;
33367;SDS011;19724;51.114;13.906;2023-04-03T04:11:21;11.57;;;2.63;;
33367;SDS011;19724;51.114;13.906;2023-04-03T04:13:47;5.47;;;2.42;;
33367;SDS011;19724;51.114;13.906;2023-04-03T04:16:12;6.78;;;2.45;;
33367;SDS011;19724;51.114;13.906;2023-04-03T04:18:38;7.45;;;2.92;;
33367;SDS011;19724;51.114;13.906;2023-04-03T04:21:03;10.15;;;2.78;;
33367;SDS011;19724;51.114;13.906;2023-04-03T04:23:29;5.70;;;2.60;;
33367;SDS011;19724;51.114;13.906;2023-04-03T04:25:54;9.68;;;3.00;;
33367;SDS011;19724;51.114;13.906;2023-04-03T04:28:20;8.40;;;2.42;;
33367;SDS011;19724;51.114;13.906;2023-04-03T04:30:45;5.28;;;2.60;;
33367;SDS011;19724;51.114;13.906;2023-04-03T04:33:11;9.45;;;3.03;;
33367;SDS011;19724;51.114;13.906;2023-04-03T04:35:36;10.43;;;3.05;;
33367;SDS011;19724;51.114;13.906;2023-04-03T04:38:02;8.88;;;3.10;;
33367;SDS011;19724;51.114;13.906;2023-04-03T04:40:27;8.80;;;2.78;;
33367;SDS011;19724;51.114;13.906;2023-04-03T04:42:54;8.90;;;3.00;;
33367;SDS011;19724;51.114;13.906;2023-04-03T04:45:20;6.18;;;2.20;;
33367;SDS011;19724;51.114;13.906;2023-04-03T04:47:45;6.05;;;2.78;;
33367;SDS011;19724;51.114;13.906;2023-04-03T04:50:11;6.53;;;2.55;;
33367;SDS011;19724;51.114;13.906;2023-04-03T04:52:39;9.07;;;2.70;;
33367;SDS011;19724;51.114;13.906;2023-04-03T04:55:08;7.20;;;2.47;;
33367;SDS011;19724;51.114;13.906;2023-04-03T04:57:33;8.52;;;2.70;;
33367;SDS011;19724;51.114;13.906;2023-04-03T04:59:59;7.07;;;2.42;;
33367;SDS011;19724;51.114;13.906;2023-04-03T05:02:25;7.45;;;2.65;;
33367;SDS011;19724;51.114;13.906;2023-04-03T05:04:50;7.78;;;3.50;;
33367;SDS011;19724;51.114;13.906;2023-04-03T05:07:17;12.85;;;4.53;;
33367;SDS011;19724;51.114;13.906;2023-04-03T05:09:42;8.32;;;3.60;;
33367;SDS011;19724;51.114;13.906;2023-04-03T05:12:08;10.48;;;4.18;;
33367;SDS011;19724;51.114;13.906;2023-04-03T05:14:33;9.23;;;3.35;;
33367;SDS011;19724;51.114;13.906;2023-04-03T05:16:59;10.88;;;3.28;;
33367;SDS011;19724;51.114;13.906;2023-04-03T05:19:24;12.18;;;3.17;;
33367;SDS011;19724;51.114;13.906;2023-04-03T05:21:49;10.00;;;3.85;;
33367;SDS011;19724;51.114;13.906;2023-04-03T05:24:15;11.00;;;3.40;;
33367;SDS011;19724;51.114;13.906;2023-04-03T05:26:42;9.40;;;3.65;;
33367;SDS011;19724;51.114;13.906;2023-04-03T05:29:08;11.20;;;3.22;;
33367;SDS011;19724;51.114;13.906;2023-04-03T05:31:33;11.88;;;3.92;;
33367;SDS011;19724;51.114;13.906;2023-04-03T05:33:59;7.72;;;2.75;;
33367;SDS011;19724;51.114;13.906;2023-04-03T05:36:25;11.43;;;3.63;;
33367;SDS011;19724;51.114;13.906;2023-04-03T05:38:51;8.82;;;3.10;;
33367;SDS011;19724;51.114;13.906;2023-04-03T05:41:17;9.65;;;2.92;;
33367;SDS011;19724;51.114;13.906;2023-04-03T05:43:43;12.43;;;3.67;;
33367;SDS011;19724;51.114;13.906;2023-04-03T05:46:12;7.47;;;2.83;;
33367;SDS011;19724;51.114;13.906;2023-04-03T05:48:41;11.43;;;2.75;;
33367;SDS011;19724;51.114;13.906;2023-04-03T05:51:06;19.48;;;7.68;;
33367;SDS011;19724;51.114;13.906;2023-04-03T05:53:37;8.25;;;2.67;;
33367;SDS011;19724;51.114;13.906;2023-04-03T05:56:03;10.30;;;3.58;;
33367;SDS011;19724;51.114;13.906;2023-04-03T05:58:29;9.63;;;3.13;;
33367;SDS011;19724;51.114;13.906;2023-04-03T06:00:54;9.82;;;3.35;;
33367;SDS011;19724;51.114;13.906;2023-04-03T06:03:20;9.95;;;3.28;;
33367;SDS011;19724;51.114;13.906;2023-04-03T06:05:46;14.93;;;3.60;;
33367;SDS011;19724;51.114;13.906;2023-04-03T06:08:11;11.93;;;3.53;;
33367;SDS011;19724;51.114;13.906;2023-04-03T06:10:37;7.55;;;3.00;;
33367;SDS011;19724;51.114;13.906;2023-04-03T06:13:03;10.32;;;3.15;;
33367;SDS011;19724;51.114;13.906;2023-04-03T06:15:29;10.30;;;3.38;;
33367;SDS011;19724;51.114;13.906;2023-04-03T06:17:54;10.35;;;3.30;;
33367;SDS011;19724;51.114;13.906;2023-04-03T06:20:20;14.68;;;3.50;;
33367;SDS011;19724;51.114;13.906;2023-04-03T06:22:47;9.63;;;3.75;;
33367;SDS011;19724;51.114;13.906;2023-04-03T06:25:12;8.35;;;3.40;;
33367;SDS011;19724;51.114;13.906;2023-04-03T06:27:38;13.90;;;3.35;;
33367;SDS011;19724;51.114;13.906;2023-04-03T06:30:04;9.30;;;3.40;;
33367;SDS011;19724;51.114;13.906;2023-04-03T06:32:31;11.80;;;3.80;;
33367;SDS011;19724;51.114;13.906;2023-04-03T06:34:57;8.77;;;3.78;;
33367;SDS011;19724;51.114;13.906;2023-04-03T06:37:23;6.28;;;3.13;;
33367;SDS011;19724;51.114;13.906;2023-04-03T06:39:53;10.68;;;4.30;;
33367;SDS011;19724;51.114;13.906;2023-04-03T06:42:19;10.05;;;3.00;;
33367;SDS011;19724;51.114;13.906;2023-04-03T06:44:45;12.02;;;3.78;;
33367;SDS011;19724;51.114;13.906;2023-04-03T06:47:11;16.02;;;4.85;;
33367;SDS011;19724;51.114;13.906;2023-04-03T06:49:38;8.63;;;3.08;;
33367;SDS011;19724;51.114;13.906;2023-04-03T06:52:03;9.18;;;3.20;;
33367;SDS011;19724;51.114;13.906;2023-04-03T06:54:30;9.02;;;3.78;;
33367;SDS011;19724;51.114;13.906;2023-04-03T06:56:56;7.82;;;3.70;;
33367;SDS011;19724;51.114;13.906;2023-04-03T06:59:22;9.05;;;3.55;;
33367;SDS011;19724;51.114;13.906;2023-04-03T07:01:48;8.00;;;3.58;;
33367;SDS011;19724;51.114;13.906;2023-04-03T07:04:13;8.80;;;2.90;;
33367;SDS011;19724;51.114;13.906;2023-04-03T07:06:39;12.07;;;3.10;;
33367;SDS011;19724;51.114;13.906;2023-04-03T07:09:05;9.82;;;3.33;;
33367;SDS011;19724;51.114;13.906;2023-04-03T07:11:31;11.52;;;3.60;;
33367;SDS011;19724;51.114;13.906;2023-04-03T07:13:56;12.57;;;3.42;;
33367;SDS011;19724;51.114;13.906;2023-04-03T07:16:22;9.30;;;3.47;;
33367;SDS011;19724;51.114;13.906;2023-04-03T07:18:48;8.43;;;3.60;;
33367;SDS011;19724;51.114;13.906;2023-04-03T07:21:13;8.65;;;3.25;;
33367;SDS011;19724;51.114;13.906;2023-04-03T07:23:38;8.77;;;3.72;;
33367;SDS011;19724;51.114;13.906;2023-04-03T07:26:04;10.45;;;3.30;;
33367;SDS011;19724;51.114;13.906;2023-04-03T07:28:30;12.10;;;3.22;;
33367;SDS011;19724;51.114;13.906;2023-04-03T07:31:05;10.27;;;3.10;;
33367;SDS011;19724;51.114;13.906;2023-04-03T07:33:33;8.23;;;3.17;;
33367;SDS011;19724;51.114;13.906;2023-04-03T07:36:00;7.53;;;3.25;;
33367;SDS011;19724;51.114;13.906;2023-04-03T07:38:26;7.68;;;3.58;;
33367;SDS011;19724;51.114;13.906;2023-04-03T07:40:52;5.15;;;2.78;;
33367;SDS011;19724;51.114;13.906;2023-04-03T07:43:18;8.02;;;2.90;;
33367;SDS011;19724;51.114;13.906;2023-04-03T07:45:45;9.00;;;3.70;;
33367;SDS011;19724;51.114;13.906;2023-04-03T07:48:14;9.70;;;3.78;;
33367;SDS011;19724;51.114;13.906;2023-04-03T07:50:40;9.07;;;3.83;;
33367;SDS011;19724;51.114;13.906;2023-04-03T07:53:06;9.43;;;3.22;;
33367;SDS011;19724;51.114;13.906;2023-04-03T07:55:32;7.93;;;2.70;;
33367;SDS011;19724;51.114;13.906;2023-04-03T07:57:58;8.05;;;3.78;;
33367;SDS011;19724;51.114;13.906;2023-04-03T08:00:23;9.32;;;3.58;;
33367;SDS011;19724;51.114;13.906;2023-04-03T08:02:49;7.00;;;2.80;;
33367;SDS011;19724;51.114;13.906;2023-04-03T08:05:20;6.60;;;2.50;;
33367;SDS011;19724;51.114;13.906;2023-04-03T08:07:46;11.95;;;3.47;;
33367;SDS011;19724;51.114;13.906;2023-04-03T08:10:13;7.97;;;4.30;;
33367;SDS011;19724;51.114;13.906;2023-04-03T08:12:39;5.57;;;2.58;;
33367;SDS011;19724;51.114;13.906;2023-04-03T08:15:06;8.65;;;2.58;;
33367;SDS011;19724;51.114;13.906;2023-04-03T08:17:33;8.25;;;2.80;;
33367;SDS011;19724;51.114;13.906;2023-04-03T08:19:58;5.35;;;2.35;;
33367;SDS011;19724;51.114;13.906;2023-04-03T08:22:24;7.90;;;3.15;;
33367;SDS011;19724;51.114;13.906;2023-04-03T08:24:49;9.65;;;2.67;;
33367;SDS011;19724;51.114;13.906;2023-04-03T08:27:15;5.15;;;2.17;;
33367;SDS011;19724;51.114;13.906;2023-04-03T08:29:40;7.38;;;2.30;;
33367;SDS011;19724;51.114;13.906;2023-04-03T08:32:06;9.40;;;2.88;;
33367;SDS011;19724;51.114;13.906;2023-04-03T08:34:32;9.18;;;3.97;;
33367;SDS011;19724;51.114;13.906;2023-04-03T08:37:01;7.72;;;2.60;;
33367;SDS011;19724;51.114;13.906;2023-04-03T08:39:27;7.70;;;2.70;;
33367;SDS011;19724;51.114;13.906;2023-04-03T08:41:53;6.78;;;2.55;;
33367;SDS011;19724;51.114;13.906;2023-04-03T08:44:26;8.32;;;2.15;;
33367;SDS011;19724;51.114;13.906;2023-04-03T08:50:02;10.68;;;3.63;;
33367;SDS011;19724;51.114;13.906;2023-04-03T08:52:52;8.73;;;2.80;;
33367;SDS011;19724;51.114;13.906;2023-04-03T08:58:12;7.95;;;3.33;;
33367;SDS011;19724;51.114;13.906;2023-04-03T09:00:48;14.90;;;5.75;;
33367;SDS011;19724;51.114;13.906;2023-04-03T09:03:28;14.95;;;4.57;;
33367;SDS011;19724;51.114;13.906;2023-04-03T09:14:14;6.60;;;2.30;;
33367;SDS011;19724;51.114;13.906;2023-04-03T09:17:03;9.93;;;2.78;;
33367;SDS011;19724;51.114;13.906;2023-04-03T09:19:44;9.40;;;2.72;;
33367;SDS011;19724;51.114;13.906;2023-04-03T09:22:28;6.78;;;2.10;;
33367;SDS011;19724;51.114;13.906;2023-04-03T09:24:59;6.25;;;2.65;;
33367;SDS011;19724;51.114;13.906;2023-04-03T09:27:30;5.95;;;2.28;;
33367;SDS011;19724;51.114;13.906;2023-04-03T09:29:56;4.63;;;2.25;;
33367;SDS011;19724;51.114;13.906;2023-04-03T09:32:32;5.22;;;2.10;;
33367;SDS011;19724;51.114;13.906;2023-04-03T09:37:50;10.00;;;2.55;;
33367;SDS011;19724;51.114;13.906;2023-04-03T09:43:20;8.77;;;2.60;;
33367;SDS011;19724;51.114;13.906;2023-04-03T09:45:53;8.25;;;2.42;;
33367;SDS011;19724;51.114;13.906;2023-04-03T09:48:21;8.00;;;1.75;;
33367;SDS011;19724;51.114;13.906;2023-04-03T09:53:49;4.50;;;1.77;;
33367;SDS011;19724;51.114;13.906;2023-04-03T09:58:47;4.55;;;1.67;;
33367;SDS011;19724;51.114;13.906;2023-04-03T10:01:28;3.85;;;2.28;;
33367;SDS011;19724;51.114;13.906;2023-04-03T10:04:03;4.18;;;1.42;;
33367;SDS011;19724;51.114;13.906;2023-04-03T10:06:39;3.80;;;2.05;;
33367;SDS011;19724;51.114;13.906;2023-04-03T10:09:25;5.30;;;1.40;;
33367;SDS011;19724;51.114;13.906;2023-04-03T10:14:37;6.43;;;2.00;;
33367;SDS011;19724;51.114;13.906;2023-04-03T10:19:53;7.72;;;2.45;;
33367;SDS011;19724;51.114;13.906;2023-04-03T10:26:10;6.50;;;1.52;;
33367;SDS011;19724;51.114;13.906;2023-04-03T10:28:39;4.80;;;1.55;;
33367;SDS011;19724;51.114;13.906;2023-04-03T10:33:51;4.47;;;1.50;;
33367;SDS011;19724;51.114;13.906;2023-04-03T10:36:25;4.72;;;1.70;;
33367;SDS011;19724;51.114;13.906;2023-04-03T10:39:10;5.63;;;1.48;;
33367;SDS011;19724;51.114;13.906;2023-04-03T10:44:36;4.87;;;1.67;;
33367;SDS011;19724;51.114;13.906;2023-04-03T10:47:07;5.05;;;2.92;;
33367;SDS011;19724;51.114;13.906;2023-04-03T10:49:51;5.22;;;1.40;;
33367;SDS011;19724;51.114;13.906;2023-04-03T10:55:27;5.97;;;1.73;;
33367;SDS011;19724;51.114;13.906;2023-04-03T10:58:15;6.28;;;1.92;;
33367;SDS011;19724;51.114;13.906;2023-04-03T11:00:47;3.80;;;1.75;;
33367;SDS011;19724;51.114;13.906;2023-04-03T11:03:16;4.60;;;1.58;;
33367;SDS011;19724;51.114;13.906;2023-04-03T11:05:53;5.57;;;1.60;;
33367;SDS011;19724;51.114;13.906;2023-04-03T11:11:19;4.10;;;1.63;;
33367;SDS011;19724;51.114;13.906;2023-04-03T11:16:42;2.85;;;1.17;;
33367;SDS011;19724;51.114;13.906;2023-04-03T11:19:17;5.57;;;1.90;;
33367;SDS011;19724;51.114;13.906;2023-04-03T11:21:57;5.47;;;1.40;;
33367;SDS011;19724;51.114;13.906;2023-04-03T11:24:46;5.20;;;1.50;;
33367;SDS011;19724;51.114;13.906;2023-04-03T11:27:23;6.22;;;1.88;;
33367;SDS011;19724;51.114;13.906;2023-04-03T11:29:50;4.93;;;2.15;;
33367;SDS011;19724;51.114;13.906;2023-04-03T11:32:27;2.97;;;1.63;;
33367;SDS011;19724;51.114;13.906;2023-04-03T11:35:13;4.40;;;1.67;;
33367;SDS011;19724;51.114;13.906;2023-04-03T11:37:41;8.20;;;2.17;;
33367;SDS011;19724;51.114;13.906;2023-04-03T11:42:45;3.67;;;1.40;;
33367;SDS011;19724;51.114;13.906;2023-04-03T11:47:55;4.13;;;1.38;;
33367;SDS011;19724;51.114;13.906;2023-04-03T12:05:55;8.05;;;1.50;;
33367;SDS011;19724;51.114;13.906;2023-04-03T12:13:39;5.82;;;1.90;;
33367;SDS011;19724;51.114;13.906;2023-04-03T12:16:19;6.43;;;1.70;;
33367;SDS011;19724;51.114;13.906;2023-04-03T12:24:29;2.80;;;1.20;;
33367;SDS011;19724;51.114;13.906;2023-04-03T12:29:29;4.28;;;1.42;;
33367;SDS011;19724;51.114;13.906;2023-04-03T12:32:06;3.95;;;1.50;;
33367;SDS011;19724;51.114;13.906;2023-04-03T12:41:18;5.47;;;1.95;;
33367;SDS011;19724;51.114;13.906;2023-04-03T12:44:12;6.07;;;1.52;;
33367;SDS011;19724;51.114;13.906;2023-04-03T12:46:49;6.38;;;1.30;;
33367;SDS011;19724;51.114;13.906;2023-04-03T12:52:02;5.82;;;1.83;;
33367;SDS011;19724;51.114;13.906;2023-04-03T12:54:40;8.63;;;2.78;;
33367;SDS011;19724;51.114;13.906;2023-04-03T12:59:40;3.50;;;1.73;;
33367;SDS011;19724;51.114;13.906;2023-04-03T13:02:19;6.15;;;2.10;;
33367;SDS011;19724;51.114;13.906;2023-04-03T13:04:45;4.85;;;1.90;;
33367;SDS011;19724;51.114;13.906;2023-04-03T13:07:21;7.93;;;2.08;;
33367;SDS011;19724;51.114;13.906;2023-04-03T13:10:19;5.30;;;2.22;;
33367;SDS011;19724;51.114;13.906;2023-04-03T13:12:54;4.90;;;2.33;;
33367;SDS011;19724;51.114;13.906;2023-04-03T13:15:39;4.78;;;2.03;;
33367;SDS011;19724;51.114;13.906;2023-04-03T13:20:59;4.95;;;2.05;;
33367;SDS011;19724;51.114;13.906;2023-04-03T13:23:31;4.93;;;2.20;;
33367;SDS011;19724;51.114;13.906;2023-04-03T13:25:59;5.45;;;1.90;;
33367;SDS011;19724;51.114;13.906;2023-04-03T13:28:28;6.72;;;2.00;;
33367;SDS011;19724;51.114;13.906;2023-04-03T13:33:51;6.72;;;1.80;;
33367;SDS011;19724;51.114;13.906;2023-04-03T13:36:21;4.18;;;1.52;;
33367;SDS011;19724;51.114;13.906;2023-04-03T13:41:41;6.18;;;2.08;;
33367;SDS011;19724;51.114;13.906;2023-04-03T13:46:55;5.57;;;1.63;;
33367;SDS011;19724;51.114;13.906;2023-04-03T13:51:54;6.57;;;1.70;;
33367;SDS011;19724;51.114;13.906;2023-04-03T13:54:21;9.70;;;2.38;;
33367;SDS011;19724;51.114;13.906;2023-04-03T13:56:54;6.18;;;2.08;;
33367;SDS011;19724;51.114;13.906;2023-04-03T13:59:23;4.15;;;1.58;;
33367;SDS011;19724;51.114;13.906;2023-04-03T14:04:23;3.72;;;1.40;;
33367;SDS011;19724;51.114;13.906;2023-04-03T14:06:51;3.58;;;1.38;;
33367;SDS011;19724;51.114;13.906;2023-04-03T14:09:18;7.45;;;2.40;;
33367;SDS011;19724;51.114;13.906;2023-04-03T14:11:45;4.70;;;1.92;;
33367;SDS011;19724;51.114;13.906;2023-04-03T14:14:31;8.65;;;1.65;;
33367;SDS011;19724;51.114;13.906;2023-04-03T14:17:01;7.90;;;2.15;;
33367;SDS011;19724;51.114;13.906;2023-04-03T14:19:30;3.80;;;1.63;;
33367;SDS011;19724;51.114;13.906;2023-04-03T14:21:58;3.25;;;1.50;;
33367;SDS011;19724;51.114;13.906;2023-04-03T14:24:25;4.88;;;1.52;;
33367;SDS011;19724;51.114;13.906;2023-04-03T14:26:53;4.00;;;1.60;;
33367;SDS011;19724;51.114;13.906;2023-04-03T14:29:20;6.93;;;1.90;;
33367;SDS011;19724;51.114;13.906;2023-04-03T14:31:46;4.85;;;1.85;;
33367;SDS011;19724;51.114;13.906;2023-04-03T14:34:13;4.63;;;1.88;;
33367;SDS011;19724;51.114;13.906;2023-04-03T14:36:39;7.82;;;2.22;;
33367;SDS011;19724;51.114;13.906;2023-04-03T14:39:08;6.63;;;1.80;;
33367;SDS011;19724;51.114;13.906;2023-04-03T14:41:41;5.18;;;1.90;;
33367;SDS011;19724;51.114;13.906;2023-04-03T14:44:07;6.45;;;2.17;;
33367;SDS011;19724;51.114;13.906;2023-04-03T14:46:35;6.28;;;2.08;;
33367;SDS011;19724;51.114;13.906;2023-04-03T14:49:02;5.00;;;1.60;;
33367;SDS011;19724;51.114;13.906;2023-04-03T14:51:32;3.28;;;1.70;;
33367;SDS011;19724;51.114;13.906;2023-04-03T14:53:58;3.00;;;1.20;;
33367;SDS011;19724;51.114;13.906;2023-04-03T14:56:27;4.18;;;1.50;;
33367;SDS011;19724;51.114;13.906;2023-04-03T14:58:55;6.53;;;1.80;;
33367;SDS011;19724;51.114;13.906;2023-04-03T15:01:23;6.72;;;2.10;;
33367;SDS011;19724;51.114;13.906;2023-04-03T15:03:48;3.80;;;1.38;;
33367;SDS011;19724;51.114;13.906;2023-04-03T15:06:14;7.18;;;2.40;;
33367;SDS011;19724;51.114;13.906;2023-04-03T15:08:40;4.22;;;1.65;;
33367;SDS011;19724;51.114;13.906;2023-04-03T15:11:07;7.38;;;1.80;;
33367;SDS011;19724;51.114;13.906;2023-04-03T15:13:34;5.70;;;1.77;;
33367;SDS011;19724;51.114;13.906;2023-04-03T15:16:00;6.55;;;1.80;;
33367;SDS011;19724;51.114;13.906;2023-04-03T15:18:26;5.60;;;1.92;;
33367;SDS011;19724;51.114;13.906;2023-04-03T15:20:55;4.22;;;1.70;;
33367;SDS011;19724;51.114;13.906;2023-04-03T15:23:21;4.78;;;1.55;;
33367;SDS011;19724;51.114;13.906;2023-04-03T15:25:51;6.45;;;1.98;;
33367;SDS011;19724;51.114;13.906;2023-04-03T15:28:19;3.53;;;1.92;;
33367;SDS011;19724;51.114;13.906;2023-04-03T15:30:50;6.20;;;1.80;;
33367;SDS011;19724;51.114;13.906;2023-04-03T15:33:16;4.15;;;1.63;;
33367;SDS011;19724;51.114;13.906;2023-04-03T15:35:42;3.03;;;1.42;;
33367;SDS011;19724;51.114;13.906;2023-04-03T15:38:08;4.60;;;1.60;;
33367;SDS011;19724;51.114;13.906;2023-04-03T15:40:34;3.90;;;1.58;;
33367;SDS011;19724;51.114;13.906;2023-04-03T15:42:59;4.28;;;1.80;;
33367;SDS011;19724;51.114;13.906;2023-04-03T15:45:25;5.65;;;1.73;;
33367;SDS011;19724;51.114;13.906;2023-04-03T15:47:54;4.22;;;1.88;;
33367;SDS011;19724;51.114;13.906;2023-04-03T15:50:19;5.15;;;2.08;;
33367;SDS011;19724;51.114;13.906;2023-04-03T15:52:47;2.60;;;1.33;;
33367;SDS011;19724;51.114;13.906;2023-04-03T15:55:13;5.25;;;1.63;;
33367;SDS011;19724;51.114;13.906;2023-04-03T15:57:38;6.25;;;1.65;;
33367;SDS011;19724;51.114;13.906;2023-04-03T16:00:04;7.25;;;1.77;;
33367;SDS011;19724;51.114;13.906;2023-04-03T16:02:30;6.55;;;1.88;;
33367;SDS011;19724;51.114;13.906;2023-04-03T16:04:56;4.65;;;1.60;;
33367;SDS011;19724;51.114;13.906;2023-04-03T16:07:22;5.93;;;2.15;;
33367;SDS011;19724;51.114;13.906;2023-04-03T16:09:47;4.10;;;1.70;;
33367;SDS011;19724;51.114;13.906;2023-04-03T16:12:13;5.07;;;1.85;;
33367;SDS011;19724;51.114;13.906;2023-04-03T16:14:38;4.57;;;2.03;;
33367;SDS011;19724;51.114;13.906;2023-04-03T16:17:04;6.70;;;2.05;;
33367;SDS011;19724;51.114;13.906;2023-04-03T16:19:29;4.57;;;1.85;;
33367;SDS011;19724;51.114;13.906;2023-04-03T16:21:55;5.00;;;2.33;;
33367;SDS011;19724;51.114;13.906;2023-04-03T16:24:21;6.55;;;2.25;;
33367;SDS011;19724;51.114;13.906;2023-04-03T16:26:47;4.10;;;1.73;;
33367;SDS011;19724;51.114;13.906;2023-04-03T16:29:12;5.40;;;1.95;;
33367;SDS011;19724;51.114;13.906;2023-04-03T16:31:38;4.40;;;1.80;;
33367;SDS011;19724;51.114;13.906;2023-04-03T16:34:03;8.50;;;1.92;;
33367;SDS011;19724;51.114;13.906;2023-04-03T16:36:29;4.20;;;2.13;;